Time;durP1;ratioP1;P1;durP2;ratioP2;P2;SDS_P1;SDS_P2;PMS_P1;PMS_P2;Temp;Humidity;BMP_temperature;BMP_pressure;BME280_temperature;BME280_humidity;BME280_pressure;Samples;Min_cycle;Max_cycle;Signal;HPM_P1;HPM_P2
2021/12/11 00:01:53;;;;;;;30.50;18.52;;;-0.70;99.90;;;;;;5092220;28;20505;-87
2021/12/11 00:04:29;;;;;;;26.98;17.40;;;0.50;99.90;;;;;;5080773;28;20051;-85
2021/12/11 00:06:56;;;;;;;27.95;17.98;;;-0.80;99.90;;;;;;5058873;28;20046;-82
2021/12/11 00:09:25;;;;;;;28.25;19.00;;;-0.70;99.90;;;;;;5070346;28;20046;-85
2021/12/11 00:12:07;;;;;;;29.55;19.27;;;-0.80;99.90;;;;;;5074707;28;20126;-85
2021/12/11 00:14:35;;;;;;;27.70;18.92;;;-0.60;99.90;;;;;;5050407;28;20100;-85
2021/12/11 00:17:02;;;;;;;29.15;18.98;;;-0.70;99.90;;;;;;5074354;28;20050;-87
2021/12/11 00:19:31;;;;;;;32.05;19.00;;;1.20;99.90;;;;;;5090598;28;20512;-84
2021/12/11 00:22:16;;;;;;;33.13;20.15;;;-0.20;99.90;;;;;;5075202;28;20048;-84
2021/12/11 00:24:42;;;;;;;29.80;20.33;;;-0.70;99.90;;;;;;5067757;28;20103;-86
2021/12/11 00:27:16;;;;;;;34.60;19.15;;;-0.20;99.90;;;;;;5080325;28;20504;-87
2021/12/11 00:29:42;;;;;;;25.52;18.00;;;-0.70;99.90;;;;;;5079430;28;20135;-82
2021/12/11 00:32:23;;;;;;;26.48;18.15;;;-0.70;99.90;;;;;;5093361;28;20069;-88
2021/12/11 00:34:50;;;;;;;29.45;19.10;;;-0.70;99.90;;;;;;5061854;28;20370;-83
2021/12/11 00:37:19;;;;;;;30.70;20.10;;;-0.70;99.90;;;;;;5085386;28;20050;-81
2021/12/11 00:39:55;;;;;;;32.85;19.75;;;-0.70;99.90;;;;;;5095816;28;20036;-86
2021/12/11 00:42:24;;;;;;;33.92;18.67;;;-0.70;99.90;;;;;;5084656;28;20051;-82
2021/12/11 00:44:53;;;;;;;29.40;19.92;;;-0.90;99.90;;;;;;5077766;28;20389;-83
2021/12/11 00:47:28;;;;;;;30.23;20.65;;;-0.70;99.90;;;;;;5087800;28;20056;-87
2021/12/11 00:49:56;;;;;;;32.15;19.95;;;-1.10;99.90;;;;;;5079347;28;20048;-82
2021/12/11 00:52:32;;;;;;;28.10;17.63;;;-0.90;99.90;;;;;;5066656;28;21081;-83
2021/12/11 00:54:58;;;;;;;29.65;18.45;;;-0.80;99.90;;;;;;5078304;28;20476;-84
2021/12/11 00:57:24;;;;;;;27.75;17.80;;;-0.80;99.90;;;;;;5090155;28;20084;-87
2021/12/11 01:00:09;;;;;;;29.23;18.40;;;1.10;99.90;;;;;;5077994;28;20043;-86
2021/12/11 01:02:35;;;;;;;;;;;-0.80;99.90;;;;;;5053824;28;20050;-82
2021/12/11 01:05:03;;;;;;;28.60;17.40;;;-0.90;99.90;;;;;;5078099;28;20061;-88
2021/12/11 01:07:32;;;;;;;25.75;17.20;;;-0.90;99.90;;;;;;5093730;28;20039;-81
2021/12/11 01:10:11;;;;;;;25.88;17.65;;;-1.00;99.90;;;;;;5078369;28;20056;-82
2021/12/11 01:12:48;;;;;;;27.52;16.40;;;-1.10;99.90;;;;;;5058394;28;20071;-88
2021/12/11 01:15:19;;;;;;;23.27;15.98;;;-1.00;99.90;;;;;;5072758;28;20043;-82
2021/12/11 01:18:22;;;;;;;24.60;16.65;;;-0.40;99.90;;;;;;5061383;28;20053;-87
2021/12/11 01:21:03;;;;;;;24.10;14.75;;;-0.90;99.90;;;;;;5054366;28;20406;-87
2021/12/11 01:26:11;;;;;;;20.45;14.45;;;-0.90;99.90;;;;;;5077950;28;20052;-82
2021/12/11 01:28:38;;;;;;;23.85;14.90;;;-1.00;99.90;;;;;;5103754;27;20081;-86
2021/12/11 01:31:07;;;;;;;18.23;13.43;;;-1.30;99.90;;;;;;5077604;28;20091;-79
2021/12/11 01:33:33;;;;;;;22.15;14.55;;;-0.40;99.90;;;;;;5069222;28;20535;-80
2021/12/11 01:35:59;;;;;;;19.90;13.38;;;-1.00;99.90;;;;;;5060295;28;20063;-86
2021/12/11 01:38:29;;;;;;;20.98;13.77;;;-0.90;99.90;;;;;;5090050;28;20054;-85
2021/12/11 01:40:59;;;;;;;20.15;13.80;;;-0.90;99.90;;;;;;5095764;28;20494;-88
2021/12/11 01:43:29;;;;;;;18.85;12.48;;;-1.10;99.90;;;;;;5069042;28;20040;-86
2021/12/11 01:45:56;;;;;;;17.30;12.90;;;-1.00;99.90;;;;;;5071705;28;20049;-80
2021/12/11 01:48:47;;;;;;;17.52;12.68;;;-1.10;99.90;;;;;;5086572;28;20412;-87
2021/12/11 01:51:30;;;;;;;18.77;12.90;;;-1.00;99.90;;;;;;5079501;28;20056;-86
2021/12/11 01:54:21;;;;;;;18.10;12.32;;;-1.00;99.90;;;;;;5060712;28;20050;-88
2021/12/11 01:56:53;;;;;;;18.45;11.18;;;-1.10;99.90;;;;;;5053433;28;20102;-86
2021/12/11 01:59:23;;;;;;;18.15;12.88;;;-1.20;99.90;;;;;;5084199;28;20046;-85
2021/12/11 02:02:07;;;;;;;21.80;11.50;;;-2.60;99.90;;;;;;5077581;28;20043;-83
2021/12/11 02:04:37;;;;;;;16.90;11.82;;;-0.60;99.90;;;;;;5077635;28;20404;-81
2021/12/11 02:07:07;;;;;;;20.60;11.73;;;-1.10;99.90;;;;;;5060212;28;20042;-85
2021/12/11 02:09:35;;;;;;;18.15;11.00;;;-1.30;99.90;;;;;;5075916;28;20096;-84
2021/12/11 02:12:20;;;;;;;19.40;12.48;;;-1.20;99.90;;;;;;5094588;28;20047;-84
2021/12/11 02:14:50;;;;;;;18.42;11.80;;;-1.10;99.90;;;;;;5053419;28;20149;-83
2021/12/11 02:17:25;;;;;;;15.50;11.57;;;-1.20;99.90;;;;;;5080678;28;20038;-88
2021/12/11 02:19:54;;;;;;;16.73;12.15;;;-1.50;99.90;;;;;;5094513;28;20051;-83
2021/12/11 02:22:32;;;;;;;15.85;11.05;;;-1.30;99.90;;;;;;5070345;28;20150;-88
2021/12/11 02:25:04;;;;;;;16.42;11.27;;;-1.20;99.90;;;;;;5050987;28;20485;-88
2021/12/11 02:27:40;;;;;;;19.13;12.40;;;-1.40;99.90;;;;;;5073593;28;20046;-87
2021/12/11 02:30:24;;;;;;;17.90;11.63;;;-1.30;99.90;;;;;;5093505;28;20052;-84
2021/12/11 02:32:56;;;;;;;15.77;10.47;;;-1.30;99.90;;;;;;5070417;28;20140;-86
2021/12/11 02:35:41;;;;;;;18.67;11.52;;;-1.30;99.90;;;;;;5067181;28;20058;-81
2021/12/11 02:38:28;;;;;;;19.38;12.30;;;-1.20;99.90;;;;;;5092799;28;20082;-82
2021/12/11 02:41:08;;;;;;;18.33;12.57;;;-1.20;99.90;;;;;;5054034;28;20053;-88
2021/12/11 02:43:40;;;;;;;20.13;12.38;;;-0.60;99.90;;;;;;5092003;28;20548;-85
2021/12/11 02:46:12;;;;;;;17.67;11.75;;;-1.20;99.90;;;;;;5092689;28;20051;-87
2021/12/11 02:48:43;;;;;;;15.95;12.52;;;-1.20;99.90;;;;;;5068196;28;20066;-83
2021/12/11 02:51:20;;;;;;;18.20;11.25;;;-0.90;99.90;;;;;;5059293;28;20049;-89
2021/12/11 02:53:53;;;;;;;14.73;11.23;;;-1.10;99.90;;;;;;5069739;28;20053;-89
2021/12/11 02:56:28;;;;;;;18.48;11.73;;;-1.40;99.90;;;;;;5080250;28;20041;-87
2021/12/11 02:58:57;;;;;;;17.40;11.45;;;-1.20;99.90;;;;;;5076069;28;20051;-86
2021/12/11 03:01:29;;;;;;;16.75;11.98;;;-0.80;99.90;;;;;;5068788;28;20520;-82
2021/12/11 03:04:04;;;;;;;16.33;11.90;;;-1.10;99.90;;;;;;5059393;28;20091;-88
2021/12/11 03:06:37;;;;;;;21.20;11.65;;;-1.20;99.90;;;;;;5087478;28;20068;-87
2021/12/11 03:09:06;;;;;;;16.95;12.30;;;-1.10;99.90;;;;;;5093056;28;20048;-82
2021/12/11 03:11:32;;;;;;;16.73;11.70;;;-0.90;99.90;;;;;;5063122;28;20036;-88
2021/12/11 03:14:00;;;;;;;19.52;12.00;;;-0.50;99.90;;;;;;5074998;28;20103;-89
2021/12/11 03:16:28;;;;;;;20.27;12.93;;;-1.10;99.90;;;;;;5084097;28;20373;-82
2021/12/11 03:18:56;;;;;;;21.05;12.43;;;-1.20;99.90;;;;;;5093749;28;20059;-88
2021/12/11 03:21:22;;;;;;;19.35;13.20;;;-1.10;99.90;;;;;;5069237;28;20489;-87
2021/12/11 03:23:52;;;;;;;19.08;12.88;;;-0.50;99.90;;;;;;5075788;28;20065;-89
2021/12/11 03:26:18;;;;;;;17.95;12.07;;;-1.20;99.90;;;;;;5078158;28;20046;-86
2021/12/11 03:28:44;;;;;;;20.55;12.05;;;-1.10;99.90;;;;;;5075879;28;20073;-87
2021/12/11 03:31:11;;;;;;;22.00;13.07;;;-1.30;99.90;;;;;;5092796;28;20043;-85
2021/12/11 03:33:47;;;;;;;23.08;13.27;;;-1.30;99.90;;;;;;5059661;28;20042;-88
2021/12/11 03:36:18;;;;;;;18.63;12.27;;;-1.40;99.90;;;;;;5060064;28;20120;-83
2021/12/11 03:38:49;;;;;;;19.33;12.65;;;-1.40;99.90;;;;;;5102237;28;20576;-88
2021/12/11 03:41:15;;;;;;;17.00;11.80;;;-1.30;99.90;;;;;;5091627;28;20424;-83
2021/12/11 03:43:41;;;;;;;19.88;13.63;;;-1.50;99.90;;;;;;5086408;28;20292;-82
2021/12/11 03:46:09;;;;;;;16.92;12.75;;;-1.40;99.90;;;;;;5078851;28;20053;-87
2021/12/11 03:48:44;;;;;;;20.92;12.88;;;-1.30;99.90;;;;;;5089621;28;20055;-87
2021/12/11 03:51:13;;;;;;;19.75;12.55;;;-1.30;99.90;;;;;;5092340;28;20047;-84
2021/12/11 03:53:38;;;;;;;18.02;12.85;;;-1.40;99.90;;;;;;5075767;28;20516;-89
2021/12/11 03:56:08;;;;;;;21.83;13.20;;;-1.40;99.90;;;;;;5057808;28;20049;-80
2021/12/11 03:58:35;;;;;;;17.08;12.82;;;-1.40;99.90;;;;;;5071762;28;20095;-82
2021/12/11 04:01:16;;;;;;;23.70;14.32;;;-0.70;99.90;;;;;;5093248;28;20104;-90
2021/12/11 04:03:43;;;;;;;22.65;14.75;;;-1.30;99.90;;;;;;5049577;28;20514;-89
2021/12/11 04:06:12;;;;;;;25.63;15.95;;;-1.30;99.90;;;;;;5075209;28;20103;-83
2021/12/11 04:08:43;;;;;;;23.60;15.57;;;-1.40;99.90;;;;;;5074802;28;20035;-87
2021/12/11 04:11:12;;;;;;;28.35;16.50;;;-1.50;99.90;;;;;;5092044;28;20039;-88
2021/12/11 04:13:38;;;;;;;28.27;18.35;;;-1.50;99.90;;;;;;5075599;28;20129;-83
2021/12/11 04:16:06;;;;;;;29.90;17.98;;;-1.40;99.90;;;;;;5074313;28;20469;-80
2021/12/11 04:18:32;;;;;;;29.30;18.75;;;-1.30;99.90;;;;;;5070601;28;20030;-88
2021/12/11 04:20:58;;;;;;;32.95;18.15;;;-1.40;99.90;;;;;;5076093;28;20047;-88
2021/12/11 04:23:23;;;;;;;25.63;17.00;;;-1.20;99.90;;;;;;5068133;28;20502;-84
2021/12/11 04:25:52;;;;;;;24.55;16.20;;;-1.10;99.90;;;;;;5058265;28;20122;-82
2021/12/11 04:28:20;;;;;;;25.50;17.05;;;-1.10;99.90;;;;;;5075835;28;20092;-82
2021/12/11 04:30:51;;;;;;;24.42;17.02;;;-1.10;99.90;;;;;;5075008;28;20042;-89
2021/12/11 04:33:17;;;;;;;30.42;17.52;;;-1.10;99.90;;;;;;5074098;28;20036;-82
2021/12/11 04:35:44;;;;;;;25.73;15.93;;;-1.20;99.90;;;;;;5075158;28;20129;-81
2021/12/11 04:38:11;;;;;;;25.08;16.70;;;-1.00;99.90;;;;;;5057615;28;20069;-87
2021/12/11 04:40:42;;;;;;;23.23;16.17;;;-0.90;99.90;;;;;;5090047;28;20368;-87
2021/12/11 04:43:17;;;;;;;23.15;15.55;;;-1.00;99.90;;;;;;5091549;28;20043;-80
2021/12/11 04:45:48;;;;;;;22.67;15.23;;;-1.00;99.90;;;;;;5057869;28;20061;-90
2021/12/11 04:48:32;;;;;;;24.13;14.90;;;-1.00;99.90;;;;;;5057656;28;20046;-89
2021/12/11 04:51:11;;;;;;;24.27;15.70;;;-0.90;99.90;;;;;;5068258;28;20045;-87
2021/12/11 04:59:32;;;;;;;23.05;14.63;;;-1.10;99.90;;;;;;5073968;28;19921;-84
2021/12/11 05:09:59;;;;;;;27.88;15.63;;;-1.10;99.90;;;;;;5066989;28;20106;-85
2021/12/11 05:12:34;;;;;;;20.30;14.30;;;-1.10;99.90;;;;;;5083053;28;20034;-88
2021/12/11 05:15:05;;;;;;;25.45;15.15;;;-1.20;99.90;;;;;;5095497;28;20048;-88
2021/12/11 05:17:30;;;;;;;21.55;15.32;;;-1.10;99.90;;;;;;5086031;28;20082;-88
2021/12/11 05:19:56;;;;;;;23.98;16.08;;;-1.20;99.90;;;;;;5060744;28;20122;-82
2021/12/11 05:22:22;;;;;;;25.67;15.57;;;-1.30;99.90;;;;;;5063907;28;20525;-82
2021/12/11 05:24:52;;;;;;;24.50;14.70;;;-1.10;99.90;;;;;;5095152;28;20449;-81
2021/12/11 05:27:19;;;;;;;20.13;14.30;;;-1.20;99.90;;;;;;5076871;28;20040;-87
2021/12/11 05:29:45;;;;;;;21.77;14.60;;;-1.20;99.90;;;;;;5061414;28;20034;-82
2021/12/11 05:32:14;;;;;;;21.40;13.80;;;-1.30;99.90;;;;;;5077382;28;20045;-84
2021/12/11 05:34:41;;;;;;;22.20;14.95;;;-1.40;99.90;;;;;;5093926;28;20027;-88
2021/12/11 05:37:06;;;;;;;22.05;14.32;;;-1.30;99.90;;;;;;5079277;28;20048;-87
2021/12/11 05:39:32;;;;;;;25.02;14.85;;;-1.20;99.90;;;;;;5068658;28;20123;-88
2021/12/11 05:41:58;;;;;;;21.35;14.05;;;-1.20;99.90;;;;;;5060654;28;20489;-82
2021/12/11 05:44:24;;;;;;;25.55;15.68;;;-1.40;99.90;;;;;;5088667;28;20417;-82
2021/12/11 05:46:52;;;;;;;22.23;15.40;;;-0.70;99.90;;;;;;5084179;28;20042;-88
2021/12/11 05:49:21;;;;;;;26.58;16.85;;;-1.70;99.90;;;;;;5093819;28;20050;-82
2021/12/11 05:51:48;;;;;;;25.35;17.13;;;-1.40;99.90;;;;;;5068989;28;20519;-84
2021/12/11 05:54:23;;;;;;;23.98;15.95;;;0.20;99.90;;;;;;5076295;28;20050;-88
2021/12/11 05:56:53;;;;;;;21.92;15.23;;;-1.40;99.90;;;;;;5066832;28;20068;-82
2021/12/11 05:59:19;;;;;;;23.60;14.75;;;-1.40;99.90;;;;;;5060376;28;20046;-81
2021/12/11 06:01:57;;;;;;;24.92;15.15;;;-1.30;99.90;;;;;;5077083;28;20035;-88
2021/12/11 06:04:28;;;;;;;24.05;15.32;;;-1.30;99.90;;;;;;5091162;28;20435;-87
2021/12/11 06:06:54;;;;;;;19.40;13.63;;;-1.40;99.90;;;;;;5077307;28;20121;-83
2021/12/11 06:09:22;;;;;;;26.52;16.00;;;-1.50;99.90;;;;;;5060556;28;20533;-84
2021/12/11 06:11:51;;;;;;;21.75;14.60;;;-1.40;99.90;;;;;;5094175;28;20039;-88
2021/12/11 06:14:18;;;;;;;25.20;15.48;;;-1.50;99.90;;;;;;5093374;28;20063;-85
2021/12/11 06:16:45;;;;;;;24.67;15.70;;;-1.40;99.90;;;;;;5076952;28;20038;-83
2021/12/11 06:19:11;;;;;;;26.20;15.77;;;-1.50;99.90;;;;;;5076809;28;20049;-83
2021/12/11 06:21:37;;;;;;;22.25;15.00;;;-1.40;99.90;;;;;;5076863;28;20505;-86
2021/12/11 06:24:04;;;;;;;24.98;15.60;;;-1.50;99.90;;;;;;5076105;28;20063;-86
2021/12/11 06:26:30;;;;;;;25.38;16.17;;;-1.50;99.90;;;;;;5084333;28;20033;-83
2021/12/11 06:28:56;;;;;;;24.02;14.85;;;-0.90;99.90;;;;;;5077091;28;20436;-84
2021/12/11 06:31:22;;;;;;;30.00;15.27;;;-1.60;99.90;;;;;;5091546;28;20043;-86
2021/12/11 06:33:50;;;;;;;27.38;16.42;;;-1.30;99.90;;;;;;5059935;28;20522;-81
2021/12/11 06:36:19;;;;;;;26.90;16.58;;;-1.60;99.90;;;;;;5076224;28;20128;-86
2021/12/11 06:38:48;;;;;;;25.17;16.02;;;-1.70;99.90;;;;;;5093690;28;20092;-82
2021/12/11 06:41:16;;;;;;;23.80;15.60;;;-1.60;99.90;;;;;;5093035;28;20046;-86
2021/12/11 06:43:42;;;;;;;28.95;15.45;;;-0.90;99.90;;;;;;5091655;28;20039;-83
2021/12/11 06:46:08;;;;;;;28.73;16.10;;;-1.60;99.90;;;;;;5068671;28;20462;-87
2021/12/11 06:48:34;;;;;;;27.15;15.80;;;-1.60;99.90;;;;;;5076854;28;20062;-87
2021/12/11 06:51:01;;;;;;;29.77;16.08;;;-1.30;99.90;;;;;;5093237;28;20032;-81
2021/12/11 06:53:33;;;;;;;25.08;15.80;;;-1.70;99.90;;;;;;5088045;28;20035;-83
2021/12/11 06:56:00;;;;;;;24.35;16.10;;;-1.60;99.90;;;;;;5051427;28;20049;-88
2021/12/11 06:58:27;;;;;;;26.23;16.73;;;-1.30;99.90;;;;;;5078802;28;20469;-81
2021/12/11 07:00:53;;;;;;;24.38;14.43;;;-1.50;99.90;;;;;;5093581;28;20046;-82
2021/12/11 07:03:20;;;;;;;23.30;14.90;;;-1.70;99.90;;;;;;5093054;28;20039;-81
2021/12/11 07:05:45;;;;;;;28.25;16.35;;;-1.70;99.90;;;;;;5058970;28;20034;-86
2021/12/11 07:08:12;;;;;;;24.88;16.80;;;-1.70;99.90;;;;;;5075842;28;20504;-86
2021/12/11 07:10:40;;;;;;;23.38;15.65;;;-2.00;99.90;;;;;;5088266;28;20049;-81
2021/12/11 07:13:07;;;;;;;22.77;15.15;;;-1.10;99.90;;;;;;5074469;28;20047;-87
2021/12/11 07:15:33;;;;;;;26.45;16.95;;;-1.60;99.90;;;;;;5068165;28;20136;-83
2021/12/11 07:17:58;;;;;;;29.80;19.08;;;-1.60;99.90;;;;;;5093590;28;20550;-81
2021/12/11 07:20:24;;;;;;;28.20;18.23;;;-1.60;99.90;;;;;;5090011;28;20402;-86
2021/12/11 07:22:50;;;;;;;25.67;14.80;;;-1.10;99.90;;;;;;5058883;28;20120;-86
2021/12/11 07:25:27;;;;;;;25.55;16.45;;;-1.60;99.90;;;;;;5075177;28;20046;-82
2021/12/11 07:27:55;;;;;;;26.38;16.30;;;-1.60;99.90;;;;;;5058460;28;20396;-84
2021/12/11 07:30:23;;;;;;;21.13;15.40;;;-1.80;99.90;;;;;;5075606;28;20658;-81
2021/12/11 07:32:51;;;;;;;23.02;15.20;;;-1.60;99.90;;;;;;5067084;28;20497;-81
2021/12/11 07:35:16;;;;;;;26.35;16.38;;;-1.00;99.90;;;;;;5075192;28;20053;-82
2021/12/11 07:37:49;;;;;;;22.63;15.80;;;-1.60;99.90;;;;;;5090777;28;20415;-85
2021/12/11 07:40:15;;;;;;;25.45;16.80;;;-1.70;99.90;;;;;;5091714;28;20474;-85
2021/12/11 07:42:41;;;;;;;23.10;15.82;;;-1.70;99.90;;;;;;5062630;28;20040;-82
2021/12/11 07:45:07;;;;;;;45.83;28.67;;;-1.60;99.90;;;;;;5076024;28;20038;-84
2021/12/11 07:47:32;;;;;;;56.65;32.33;;;-1.60;99.90;;;;;;5087227;28;20128;-84
2021/12/11 07:49:58;;;;;;;25.65;16.98;;;-1.60;99.90;;;;;;5084937;28;20072;-85
2021/12/11 07:52:24;;;;;;;24.85;16.83;;;-1.60;99.90;;;;;;5090746;28;20043;-81
2021/12/11 07:54:49;;;;;;;23.00;15.75;;;-1.60;99.90;;;;;;5057838;28;20038;-86
2021/12/11 07:57:15;;;;;;;26.95;16.27;;;-1.60;99.90;;;;;;5075414;28;20073;-82
2021/12/11 07:59:41;;;;;;;25.27;15.93;;;-1.60;99.90;;;;;;5071577;28;20057;-86
2021/12/11 08:02:06;;;;;;;24.83;17.08;;;-1.30;99.90;;;;;;5091475;28;20051;-85
2021/12/11 08:04:34;;;;;;;25.73;16.40;;;-1.70;99.90;;;;;;5085301;28;20390;-86
2021/12/11 08:07:00;;;;;;;24.40;15.85;;;-1.60;99.90;;;;;;5075622;28;20404;-84
2021/12/11 08:09:26;;;;;;;28.20;17.48;;;-1.60;99.90;;;;;;5059265;28;20589;-82
2021/12/11 08:11:52;;;;;;;27.05;16.70;;;-1.00;99.90;;;;;;5092308;28;20131;-85
2021/12/11 08:14:20;;;;;;;25.85;17.00;;;-0.80;99.90;;;;;;5067232;28;20403;-85
2021/12/11 08:16:53;;;;;;;29.23;16.67;;;-1.60;99.90;;;;;;5059225;28;20048;-85
2021/12/11 08:19:24;;;;;;;28.65;18.02;;;-1.20;99.90;;;;;;5075097;28;20549;-85
2021/12/11 08:21:53;;;;;;;25.50;17.27;;;-1.60;99.90;;;;;;5067052;28;20042;-83
2021/12/11 08:24:20;;;;;;;27.50;18.30;;;-1.20;99.90;;;;;;5057839;28;20050;-82
2021/12/11 08:26:46;;;;;;;142.25;83.00;;;-1.50;99.90;;;;;;5072946;28;20084;-84
2021/12/11 08:29:13;;;;;;;35.70;20.40;;;-1.50;99.90;;;;;;5091094;28;20043;-83
2021/12/11 08:31:43;;;;;;;27.23;17.88;;;-1.50;99.90;;;;;;5082328;28;20043;-83
2021/12/11 08:34:08;;;;;;;27.02;17.95;;;-0.90;99.90;;;;;;5057584;28;20052;-85
2021/12/11 08:36:35;;;;;;;30.92;18.08;;;-1.50;99.90;;;;;;5085327;28;20134;-81
2021/12/11 08:39:01;;;;;;;28.95;19.30;;;-1.50;99.90;;;;;;5075208;28;20479;-86
2021/12/11 08:41:29;;;;;;;28.05;19.70;;;-1.40;99.90;;;;;;5075766;28;20442;-85
2021/12/11 08:44:02;;;;;;;31.58;19.85;;;-1.50;99.90;;;;;;5074666;28;20067;-81
2021/12/11 08:46:33;;;;;;;37.92;22.33;;;-1.50;99.90;;;;;;5092677;28;20039;-83
2021/12/11 08:49:03;;;;;;;31.33;20.02;;;-1.40;99.90;;;;;;5053760;28;20030;-82
2021/12/11 08:51:37;;;;;;;43.22;24.50;;;-0.90;99.90;;;;;;5079181;28;20455;-85
2021/12/11 08:54:04;;;;;;;;;;;-1.00;99.90;;;;;;5060370;28;20069;-85
2021/12/11 08:56:29;;;;;;;33.63;20.60;;;-0.90;99.90;;;;;;5073828;28;19922;-84
2021/12/11 08:58:55;;;;;;;45.13;23.58;;;-0.50;99.90;;;;;;5085483;28;20395;-84
2021/12/11 09:01:28;;;;;;;44.55;23.05;;;-1.10;99.90;;;;;;5094582;28;20583;-84
2021/12/11 09:04:05;;;;;;;39.42;23.67;;;-0.30;99.90;;;;;;5085553;28;20047;-81
2021/12/11 09:06:36;;;;;;;43.92;24.35;;;-0.90;99.90;;;;;;5093826;28;20036;-83
2021/12/11 09:09:08;;;;;;;33.08;20.98;;;-0.60;99.90;;;;;;5074471;28;20093;-82
2021/12/11 09:11:45;;;;;;;35.00;23.17;;;-0.80;99.90;;;;;;5079821;28;20071;-81
2021/12/11 09:14:12;;;;;;;37.47;23.23;;;-0.80;99.90;;;;;;5077708;28;20086;-81
2021/12/11 09:17:05;;;;;;;38.40;23.52;;;-1.10;99.90;;;;;;5072369;28;20043;-82
2021/12/11 09:19:38;;;;;;;36.05;23.08;;;-0.70;99.90;;;;;;5068043;28;20054;-82
2021/12/11 09:22:22;;;;;;;32.90;20.90;;;-0.60;99.90;;;;;;5070214;28;20052;-81
2021/12/11 09:25:07;;;;;;;31.35;21.67;;;-0.60;99.90;;;;;;5065778;28;20057;-82
2021/12/11 09:27:44;;;;;;;36.63;22.52;;;-0.70;99.90;;;;;;5080080;28;20041;-82
2021/12/11 09:30:16;;;;;;;32.22;21.50;;;-0.50;99.90;;;;;;5094923;28;20131;-82
2021/12/11 09:32:47;;;;;;;43.30;26.02;;;-0.50;99.90;;;;;;5069822;28;20039;-82
2021/12/11 09:35:30;;;;;;;44.28;26.85;;;-0.50;99.90;;;;;;5077271;28;20508;-81
2021/12/11 09:38:02;;;;;;;45.47;25.45;;;1.00;99.90;;;;;;5073492;28;20042;-81
2021/12/11 09:40:37;;;;;;;38.83;23.88;;;-0.40;99.90;;;;;;5094222;28;20043;-81
2021/12/11 09:43:03;;;;;;;40.08;22.88;;;-0.40;99.90;;;;;;5069660;28;20053;-81
2021/12/11 09:45:42;;;;;;;37.08;24.40;;;-0.30;99.90;;;;;;5060795;28;20569;-82
2021/12/11 09:48:17;;;;;;;38.55;23.52;;;-0.30;99.90;;;;;;5069594;28;20042;-82
2021/12/11 09:50:53;;;;;;;43.10;23.58;;;-0.30;99.90;;;;;;5069580;28;20040;-81
2021/12/11 09:53:21;;;;;;;40.30;24.25;;;0.00;99.90;;;;;;5075809;28;20039;-80
2021/12/11 09:55:48;;;;;;;39.58;25.90;;;0.40;99.90;;;;;;5070610;28;20397;-82
2021/12/11 09:58:18;;;;;;;41.90;25.83;;;0.00;99.90;;;;;;5075683;28;20103;-83
2021/12/11 10:00:58;;;;;;;46.05;25.77;;;0.00;99.90;;;;;;5086674;28;20047;-80
2021/12/11 10:03:29;;;;;;;36.03;24.40;;;0.30;99.90;;;;;;5076593;28;20103;-83
2021/12/11 10:06:25;;;;;;;52.70;34.38;;;0.30;99.90;;;;;;5092964;28;20055;-82
2021/12/11 10:09:07;;;;;;;60.72;36.53;;;0.20;99.90;;;;;;5065476;28;20040;-82
2021/12/11 10:11:33;;;;;;;50.65;27.50;;;0.30;99.90;;;;;;5060404;28;20508;-80
2021/12/11 10:14:06;;;;;;;41.67;25.83;;;0.40;99.90;;;;;;5076497;28;20052;-80
2021/12/11 10:16:37;;;;;;;50.58;28.60;;;0.40;99.90;;;;;;5093982;28;20132;-81
2021/12/11 10:19:05;;;;;;;45.03;27.15;;;0.40;99.90;;;;;;5051831;28;20326;-80
2021/12/11 10:21:39;;;;;;;46.85;27.85;;;0.50;99.90;;;;;;5051335;28;20042;-80
2021/12/11 10:24:14;;;;;;;44.65;26.20;;;0.60;99.90;;;;;;5068368;28;20050;-80
2021/12/11 10:26:40;;;;;;;40.33;25.92;;;0.50;99.90;;;;;;5054193;28;20042;-80
2021/12/11 10:29:12;;;;;;;36.97;25.10;;;0.70;99.90;;;;;;5068537;28;20039;-80
2021/12/11 10:31:41;;;;;;;44.38;25.80;;;0.70;99.90;;;;;;5076355;28;20483;-81
2021/12/11 10:34:11;;;;;;;37.60;24.80;;;0.60;99.90;;;;;;5076328;28;20125;-81
2021/12/11 10:36:45;;;;;;;44.20;26.35;;;1.70;99.90;;;;;;5059461;28;20046;-80
2021/12/11 10:39:13;;;;;;;41.63;27.52;;;0.70;99.90;;;;;;5059423;28;20050;-81
2021/12/11 10:41:39;;;;;;;46.85;26.30;;;0.80;99.90;;;;;;5060142;28;20096;-81
2021/12/11 10:44:14;;;;;;;41.90;24.80;;;0.80;99.90;;;;;;5075369;28;20032;-80
2021/12/11 10:47:06;;;;;;;39.05;24.27;;;0.90;99.90;;;;;;5092824;28;20387;-80
2021/12/11 10:49:35;;;;;;;40.40;23.45;;;1.00;99.90;;;;;;5077182;28;20544;-80
2021/12/11 10:52:27;;;;;;;39.47;24.38;;;1.00;99.90;;;;;;5076572;28;20035;-80
2021/12/11 10:54:55;;;;;;;44.05;27.15;;;2.10;99.90;;;;;;5083963;28;20051;-81
2021/12/11 10:57:22;;;;;;;33.75;24.55;;;1.00;99.90;;;;;;5074996;28;20044;-81
2021/12/11 10:59:52;;;;;;;38.38;23.38;;;1.00;99.90;;;;;;5065625;28;20442;-80
2021/12/11 11:02:27;;;;;;;33.15;22.48;;;1.10;99.90;;;;;;5076018;28;20058;-80
2021/12/11 11:04:57;;;;;;;32.88;22.00;;;1.10;99.90;;;;;;5065331;28;20093;-79
2021/12/11 11:07:25;;;;;;;39.20;22.98;;;1.30;99.90;;;;;;5057739;28;20038;-81
2021/12/11 11:09:51;;;;;;;36.30;21.17;;;1.30;99.90;;;;;;5091783;28;20497;-81
2021/12/11 11:12:21;;;;;;;38.15;24.45;;;1.40;99.90;;;;;;5061162;28;20380;-79
2021/12/11 11:14:49;;;;;;;34.90;21.83;;;1.50;99.90;;;;;;5079633;28;20066;-80
2021/12/11 11:17:21;;;;;;;37.15;22.02;;;3.10;99.90;;;;;;5051495;28;20125;-81
2021/12/11 11:19:49;;;;;;;35.83;23.17;;;3.40;99.90;;;;;;5078473;28;20054;-84
2021/12/11 11:22:36;;;;;;;31.85;20.60;;;2.90;99.90;;;;;;5079034;28;20077;-87
2021/12/11 11:25:05;;;;;;;28.88;19.73;;;1.50;99.90;;;;;;5092086;28;20393;-82
2021/12/11 11:27:31;;;;;;;31.88;20.35;;;1.60;99.90;;;;;;5058947;28;20042;-79
2021/12/11 11:29:57;;;;;;;30.10;20.45;;;2.30;99.90;;;;;;5085550;28;20038;-84
2021/12/11 11:32:31;;;;;;;34.17;20.25;;;0.60;99.90;;;;;;5057937;28;20482;-81
2021/12/11 11:35:12;;;;;;;31.80;20.33;;;1.60;99.90;;;;;;5092918;28;20094;-82
2021/12/11 11:37:39;;;;;;;27.50;20.02;;;1.60;99.90;;;;;;5058426;28;20496;-86
2021/12/11 11:40:10;;;;;;;29.17;19.48;;;1.40;99.90;;;;;;5077626;28;20513;-85
2021/12/11 11:42:37;;;;;;;32.53;19.55;;;1.50;99.90;;;;;;5076479;28;20047;-86
2021/12/11 11:45:11;;;;;;;27.13;18.83;;;0.40;99.90;;;;;;5067595;28;20630;-83
2021/12/11 11:47:37;;;;;;;29.33;19.33;;;1.50;99.90;;;;;;5063094;28;20057;-87
2021/12/11 11:50:10;;;;;;;29.55;19.60;;;1.50;99.90;;;;;;5062710;28;20045;-84
2021/12/11 11:52:36;;;;;;;28.10;19.20;;;1.50;99.90;;;;;;5096146;28;20479;-83
2021/12/11 11:55:13;;;;;;;28.02;19.23;;;3.00;99.90;;;;;;5069807;28;20401;-82
2021/12/11 11:57:43;;;;;;;28.35;18.23;;;1.40;99.90;;;;;;5071335;28;20035;-84
2021/12/11 12:00:15;;;;;;;30.83;19.77;;;1.30;99.90;;;;;;5096350;28;20036;-84
2021/12/11 12:02:41;;;;;;;29.33;19.42;;;1.40;99.90;;;;;;5068127;28;20096;-82
2021/12/11 12:05:09;;;;;;;27.02;18.65;;;1.50;99.90;;;;;;5091602;28;20051;-84
2021/12/11 12:07:36;;;;;;;25.77;18.60;;;1.50;99.90;;;;;;5078004;28;20057;-81
2021/12/11 12:10:12;;;;;;;31.08;18.63;;;1.40;99.90;;;;;;5070577;28;20129;-80
2021/12/11 12:12:46;;;;;;;30.10;19.85;;;1.50;99.90;;;;;;5073080;28;20040;-88
2021/12/11 12:15:21;;;;;;;30.80;19.92;;;3.30;99.90;;;;;;5042731;28;20079;-84
2021/12/11 12:17:47;;;;;;;32.53;19.23;;;;;;;;;;5060942;28;20444;-85
2021/12/11 12:20:18;;;;;;;32.33;20.92;;;1.50;99.90;;;;;;5078104;28;20395;-84
2021/12/11 12:23:16;;;;;;;27.45;19.27;;;1.00;99.90;;;;;;5064853;28;20042;-86
2021/12/11 12:25:51;;;;;;;28.55;19.10;;;3.30;99.90;;;;;;5087164;28;20040;-84
2021/12/11 12:28:22;;;;;;;28.00;19.90;;;1.40;99.90;;;;;;5033023;28;20053;-85
2021/12/11 12:30:56;;;;;;;30.63;20.45;;;1.50;99.90;;;;;;5059314;28;20046;-88
2021/12/11 12:33:22;;;;;;;;;;;1.00;99.90;;;;;;5072378;28;20048;-88
2021/12/11 12:35:48;;;;;;;35.75;21.77;;;2.30;99.90;;;;;;5079170;28;19926;-81
2021/12/11 12:38:22;;;;;;;28.70;20.27;;;1.30;99.90;;;;;;5061268;28;20537;-85
2021/12/11 12:41:20;;;;;;;33.85;21.42;;;1.60;99.90;;;;;;5079470;28;20063;-83
2021/12/11 12:44:18;;;;;;;30.13;20.23;;;1.60;99.90;;;;;;5034122;28;20046;-87
2021/12/11 12:47:08;;;;;;;36.08;22.58;;;1.70;99.90;;;;;;5067660;28;20047;-82
2021/12/11 12:49:36;;;;;;;29.40;19.20;;;1.70;99.90;;;;;;5057205;28;20064;-78
2021/12/11 12:52:14;;;;;;;36.35;21.38;;;1.70;99.90;;;;;;5069624;28;20489;-78
2021/12/11 12:54:40;;;;;;;30.70;22.02;;;1.80;99.90;;;;;;5076755;28;20548;-84
2021/12/11 12:57:14;;;;;;;34.13;21.17;;;1.80;99.90;;;;;;5068810;28;20034;-83
2021/12/11 12:59:55;;;;;;;34.72;21.05;;;1.80;99.90;;;;;;5076225;28;20121;-83
2021/12/11 13:02:23;;;;;;;30.38;21.88;;;1.90;99.90;;;;;;5071374;28;20044;-82
2021/12/11 13:05:02;;;;;;;37.60;22.05;;;2.00;99.90;;;;;;5046696;28;20041;-84
2021/12/11 13:07:28;;;;;;;37.90;23.27;;;2.10;99.90;;;;;;5056293;28;20940;-80